createdAt,value
2023-03-22T00:01:20.430Z,8.40
2023-03-22T00:03:48.858Z,8.40
2023-03-22T00:06:16.773Z,8.40
2023-03-22T00:08:44.614Z,8.40
2023-03-22T00:11:12.886Z,8.30
2023-03-22T00:13:43.044Z,8.30
2023-03-22T00:16:11.107Z,8.30
2023-03-22T00:18:38.153Z,8.30
2023-03-22T00:21:05.618Z,8.30
2023-03-22T00:23:32.701Z,8.20
2023-03-22T00:25:59.693Z,8.10
2023-03-22T00:28:26.690Z,8.10
2023-03-22T00:30:56.698Z,8.10
2023-03-22T00:33:23.847Z,8.00
2023-03-22T00:35:57.207Z,8.00
2023-03-22T00:38:39.543Z,8.00
2023-03-22T00:41:16.205Z,8.00
2023-03-22T00:43:44.071Z,7.90
2023-03-22T00:46:12.283Z,7.90
2023-03-22T00:48:39.737Z,7.80
2023-03-22T00:51:07.449Z,7.80
2023-03-22T00:53:36.662Z,7.80
2023-03-22T00:56:05.110Z,7.70
2023-03-22T00:58:32.761Z,7.60
2023-03-22T01:00:59.780Z,7.60
2023-03-22T01:03:26.765Z,7.60
2023-03-22T01:05:57.967Z,7.50
2023-03-22T01:08:25.020Z,7.50
2023-03-22T01:10:52.144Z,7.50
2023-03-22T01:13:19.281Z,7.50
2023-03-22T01:15:47.954Z,7.40
2023-03-22T01:18:14.915Z,7.30
2023-03-22T01:20:42.061Z,7.30
2023-03-22T01:23:09.326Z,7.30
2023-03-22T01:25:36.274Z,7.30
2023-03-22T01:28:03.374Z,7.30
2023-03-22T01:30:30.605Z,7.20
2023-03-22T01:32:57.643Z,7.20
2023-03-22T01:35:24.798Z,7.20
2023-03-22T01:37:52.106Z,7.10
2023-03-22T01:40:19.063Z,7.10
2023-03-22T01:42:46.154Z,7.00
2023-03-22T01:45:16.847Z,7.00
2023-03-22T01:48:15.014Z,7.00
2023-03-22T01:50:58.417Z,7.00
2023-03-22T01:53:26.857Z,7.00
2023-03-22T01:55:57.847Z,6.90
2023-03-22T01:58:25.645Z,6.90
2023-03-22T02:00:53.600Z,6.80
2023-03-22T02:03:30.506Z,6.80
2023-03-22T02:05:57.668Z,6.70
2023-03-22T02:08:24.825Z,6.70
2023-03-22T02:10:52.275Z,6.60
2023-03-22T02:13:48.143Z,6.60
2023-03-22T02:16:36.982Z,6.60
2023-03-22T02:19:29.305Z,6.50
2023-03-22T02:22:06.662Z,6.60
2023-03-22T02:24:55.657Z,6.70
2023-03-22T02:27:53.539Z,6.60
2023-03-22T02:30:29.459Z,6.60
2023-03-22T02:33:05.673Z,6.60
2023-03-22T02:35:32.572Z,6.60
2023-03-22T02:38:22.631Z,6.60
2023-03-22T02:40:49.487Z,6.50
2023-03-22T02:43:38.814Z,6.40
2023-03-22T02:46:19.714Z,6.30
2023-03-22T02:49:09.440Z,6.30
2023-03-22T02:51:43.729Z,6.30
2023-03-22T02:54:21.156Z,6.30
2023-03-22T02:56:55.393Z,6.30
2023-03-22T02:59:25.073Z,6.20
2023-03-22T03:01:56.743Z,6.20
2023-03-22T03:04:32.860Z,6.20
2023-03-22T03:07:05.546Z,6.20
2023-03-22T03:09:33.966Z,6.20
2023-03-22T03:12:00.852Z,6.20
2023-03-22T03:14:31.206Z,6.20
2023-03-22T03:17:18.064Z,6.20
2023-03-22T03:20:17.830Z,6.10
2023-03-22T03:23:00.255Z,6.20
2023-03-22T03:25:43.266Z,6.30
2023-03-22T03:28:18.137Z,6.40
2023-03-22T03:30:57.108Z,6.40
2023-03-22T03:33:28.248Z,6.40
2023-03-22T03:36:03.319Z,6.50
2023-03-22T03:38:34.266Z,6.50
2023-03-22T03:41:08.501Z,6.60
2023-03-22T03:43:37.433Z,6.70
2023-03-22T03:46:04.748Z,6.80
2023-03-22T03:48:34.109Z,6.80
2023-03-22T03:51:02.595Z,6.80
2023-03-22T03:53:30.753Z,6.80
2023-03-22T03:55:57.824Z,6.80
2023-03-22T03:58:24.734Z,6.80
2023-03-22T04:00:52.093Z,6.80
2023-03-22T04:03:19.037Z,6.80
2023-03-22T04:05:45.927Z,6.80
2023-03-22T04:08:12.870Z,6.70
2023-03-22T04:10:40.407Z,6.80
2023-03-22T04:13:07.556Z,6.80
2023-03-22T04:15:34.536Z,6.80
2023-03-22T04:18:01.416Z,6.80
2023-03-22T04:20:29.949Z,6.70
2023-03-22T04:22:58.181Z,6.70
2023-03-22T04:25:29.985Z,6.70
2023-03-22T04:27:57.091Z,6.80
2023-03-22T04:30:24.867Z,6.90
2023-03-22T04:32:51.813Z,6.80
2023-03-22T04:35:19.097Z,6.80
2023-03-22T04:37:46.113Z,6.80
2023-03-22T04:40:16.185Z,6.80
2023-03-22T04:42:44.193Z,6.80
2023-03-22T04:45:12.117Z,6.80
2023-03-22T04:47:39.431Z,6.70
2023-03-22T04:50:08.083Z,6.70
2023-03-22T04:52:34.973Z,6.70
2023-03-22T04:55:01.923Z,6.80
2023-03-22T04:57:29.014Z,6.80
2023-03-22T04:59:56.002Z,6.60
2023-03-22T05:02:23.001Z,6.60
2023-03-22T05:04:49.929Z,6.60
2023-03-22T05:07:16.921Z,6.60
2023-03-22T05:09:43.825Z,6.70
2023-03-22T05:12:11.175Z,6.60
2023-03-22T05:14:38.157Z,6.70
2023-03-22T05:17:05.208Z,6.60
2023-03-22T05:19:33.237Z,6.70
2023-03-22T05:22:02.106Z,6.70
2023-03-22T05:24:32.206Z,6.80
2023-03-22T05:27:01.168Z,6.90
2023-03-22T05:29:28.511Z,6.80
2023-03-22T05:31:55.636Z,6.80
2023-03-22T05:34:22.524Z,6.80
2023-03-22T05:36:51.622Z,6.90
2023-03-22T05:39:19.034Z,7.20
2023-03-22T05:41:46.452Z,7.60
2023-03-22T05:44:13.416Z,7.80
2023-03-22T05:46:40.408Z,8.20
2023-03-22T05:49:07.343Z,8.70
2023-03-22T05:51:41.462Z,9.20
2023-03-22T05:54:09.754Z,9.60
2023-03-22T05:56:36.984Z,9.80
2023-03-22T05:59:05.002Z,9.80
2023-03-22T06:01:33.574Z,9.80
2023-03-22T06:04:00.891Z,10.20
2023-03-22T06:06:28.277Z,10.50
2023-03-22T06:09:04.270Z,11.10
2023-03-22T06:11:41.332Z,11.40
2023-03-22T06:14:08.299Z,11.40
2023-03-22T06:16:35.176Z,11.80
2023-03-22T06:19:02.087Z,12.30
2023-03-22T06:21:28.938Z,12.50
2023-03-22T06:23:56.312Z,12.50
2023-03-22T06:26:23.248Z,12.60
2023-03-22T06:28:51.051Z,12.70
2023-03-22T06:31:17.973Z,12.60
2023-03-22T06:33:45.645Z,12.70
2023-03-22T06:36:12.647Z,12.70
2023-03-22T06:38:39.507Z,12.50
2023-03-22T06:41:06.488Z,12.60
2023-03-22T06:43:33.381Z,12.60
2023-03-22T06:46:00.847Z,12.70
2023-03-22T06:48:27.767Z,12.90
2023-03-22T06:50:54.742Z,13.00
2023-03-22T06:53:21.644Z,13.30
2023-03-22T06:55:48.646Z,13.80
2023-03-22T06:58:15.797Z,14.10
2023-03-22T07:00:42.811Z,14.20
2023-03-22T07:03:09.838Z,14.00
2023-03-22T07:05:36.751Z,14.30
2023-03-22T07:08:03.787Z,14.90
2023-03-22T07:10:30.838Z,15.50
2023-03-22T07:12:58.284Z,16.20
2023-03-22T07:15:25.270Z,16.80
2023-03-22T07:17:52.565Z,17.10
2023-03-22T07:20:20.380Z,17.30
2023-03-22T07:22:47.308Z,17.80
2023-03-22T07:25:14.255Z,18.40
2023-03-22T07:27:41.202Z,18.50
2023-03-22T07:30:09.833Z,17.80
2023-03-22T07:32:37.154Z,17.70
2023-03-22T07:35:04.169Z,17.70
2023-03-22T07:37:31.340Z,17.70
2023-03-22T07:39:58.234Z,17.40
2023-03-22T07:42:25.154Z,17.00
2023-03-22T07:44:52.313Z,17.10
2023-03-22T07:47:30.856Z,17.10
2023-03-22T07:50:05.388Z,16.90
2023-03-22T07:52:32.359Z,16.80
2023-03-22T07:54:59.248Z,16.70
2023-03-22T07:57:26.214Z,16.50
2023-03-22T07:59:53.088Z,16.30
2023-03-22T08:02:20.033Z,16.40
2023-03-22T08:04:48.547Z,16.60
2023-03-22T08:07:18.688Z,16.80
2023-03-22T08:09:46.250Z,16.80
2023-03-22T08:12:13.420Z,16.70
2023-03-22T08:14:40.453Z,17.00
2023-03-22T08:17:07.649Z,17.30
2023-03-22T08:19:34.954Z,17.60
2023-03-22T08:22:02.076Z,17.80
2023-03-22T08:24:29.008Z,18.30
2023-03-22T08:26:56.489Z,18.60
2023-03-22T08:29:23.788Z,18.60
2023-03-22T08:31:51.360Z,18.50
2023-03-22T08:34:18.412Z,18.50
2023-03-22T08:36:45.346Z,18.20
2023-03-22T08:39:12.987Z,18.10
2023-03-22T08:41:40.343Z,18.10
2023-03-22T08:44:07.334Z,18.00
2023-03-22T08:46:34.339Z,18.10
2023-03-22T08:49:02.696Z,18.10
2023-03-22T08:51:31.400Z,18.10
2023-03-22T08:54:00.438Z,17.80
2023-03-22T08:56:27.458Z,18.00
2023-03-22T08:58:54.363Z,18.50
2023-03-22T09:01:21.464Z,18.80
2023-03-22T09:03:48.441Z,19.10
2023-03-22T09:06:15.538Z,19.20
2023-03-22T09:08:42.482Z,19.20
2023-03-22T09:11:10.452Z,19.20
2023-03-22T09:13:37.620Z,19.30
2023-03-22T09:16:06.535Z,19.40
2023-03-22T09:18:33.468Z,19.50
2023-03-22T09:21:00.436Z,19.60
2023-03-22T09:23:27.554Z,19.40
2023-03-22T09:25:54.461Z,19.40
2023-03-22T09:28:21.973Z,19.90
2023-03-22T09:30:49.578Z,20.20
2023-03-22T09:33:16.475Z,20.30
2023-03-22T09:35:43.851Z,20.40
2023-03-22T09:38:12.274Z,20.60
2023-03-22T09:41:00.903Z,20.60
2023-03-22T09:43:39.995Z,20.30
2023-03-22T09:46:13.833Z,20.80
2023-03-22T09:48:43.136Z,20.80
2023-03-22T09:51:46.769Z,20.70
2023-03-22T09:54:18.672Z,20.30
2023-03-22T09:56:59.174Z,20.70
2023-03-22T09:59:44.351Z,21.00
2023-03-22T10:02:52.681Z,21.10
2023-03-22T10:05:25.719Z,20.80
2023-03-22T10:08:19.645Z,20.70
2023-03-22T10:10:47.020Z,21.00
2023-03-22T10:13:21.815Z,21.10
2023-03-22T10:15:55.601Z,21.30
2023-03-22T10:18:26.554Z,21.40
2023-03-22T10:20:57.058Z,21.50
2023-03-22T10:23:48.855Z,21.40
2023-03-22T10:26:22.905Z,21.30
2023-03-22T10:29:09.998Z,21.20
2023-03-22T10:31:39.121Z,21.00
2023-03-22T10:34:08.184Z,20.90
2023-03-22T10:36:38.780Z,20.90
2023-03-22T10:39:13.482Z,20.90
2023-03-22T10:41:41.650Z,20.80
2023-03-22T10:44:13.873Z,20.80
2023-03-22T10:46:42.826Z,20.70
2023-03-22T10:49:19.303Z,20.50
2023-03-22T10:51:51.685Z,20.30
2023-03-22T10:54:21.910Z,20.10
2023-03-22T10:56:48.933Z,20.00
2023-03-22T10:59:48.665Z,19.80
2023-03-22T11:02:31.783Z,19.70
2023-03-22T11:05:04.824Z,19.50
2023-03-22T11:07:44.218Z,19.40
2023-03-22T11:10:11.068Z,19.40
2023-03-22T11:12:42.269Z,19.30
2023-03-22T11:15:31.181Z,19.20
2023-03-22T11:18:02.227Z,19.10
2023-03-22T11:20:31.091Z,19.00
2023-03-22T11:23:02.719Z,18.90
2023-03-22T11:25:36.458Z,18.70
2023-03-22T11:28:17.880Z,18.60
2023-03-22T11:31:03.625Z,18.50
2023-03-22T11:33:30.934Z,18.40
2023-03-22T11:36:18.671Z,18.40
2023-03-22T11:38:47.380Z,18.40
2023-03-22T11:41:25.317Z,18.40
2023-03-22T11:44:11.695Z,18.40
2023-03-22T11:46:38.962Z,18.30
2023-03-22T11:49:14.534Z,18.20
2023-03-22T11:51:43.798Z,18.10
2023-03-22T11:54:19.510Z,18.10
2023-03-22T11:56:49.319Z,18.20
2023-03-22T11:59:36.914Z,18.00
2023-03-22T12:02:27.478Z,18.00
2023-03-22T12:05:18.935Z,18.10
2023-03-22T12:07:50.349Z,18.10
2023-03-22T12:10:41.624Z,18.00
2023-03-22T12:13:21.272Z,18.00
2023-03-22T12:15:56.863Z,18.10
2023-03-22T12:18:41.670Z,18.10
2023-03-22T12:21:11.610Z,18.10
2023-03-22T12:23:39.289Z,18.10
2023-03-22T12:26:12.289Z,17.90
2023-03-22T12:29:05.346Z,17.90
2023-03-22T12:31:56.268Z,17.90
2023-03-22T12:34:32.881Z,17.90
2023-03-22T12:37:03.528Z,17.80
2023-03-22T12:39:39.194Z,17.90
2023-03-22T12:42:22.719Z,17.70
2023-03-22T12:45:04.776Z,17.70
2023-03-22T12:47:42.832Z,17.70
2023-03-22T12:50:23.234Z,17.80
2023-03-22T12:52:57.040Z,18.00
2023-03-22T12:55:31.553Z,18.10
2023-03-22T12:57:59.499Z,18.30
2023-03-22T13:00:34.982Z,18.30
2023-03-22T13:03:03.918Z,18.30
2023-03-22T13:05:34.208Z,18.20
2023-03-22T13:08:04.239Z,18.20
2023-03-22T13:10:31.896Z,18.20
2023-03-22T13:13:23.537Z,18.20
2023-03-22T13:15:59.192Z,18.20
2023-03-22T13:18:38.429Z,18.20
2023-03-22T13:21:23.605Z,18.20
2023-03-22T13:23:55.785Z,18.30
2023-03-22T13:26:33.572Z,18.30
2023-03-22T13:29:08.267Z,18.30
2023-03-22T13:31:58.425Z,18.30
2023-03-22T13:34:44.853Z,18.20
2023-03-22T13:37:30.370Z,18.30
2023-03-22T13:40:02.263Z,18.40
2023-03-22T13:42:38.212Z,18.40
2023-03-22T13:45:10.059Z,18.40
2023-03-22T13:47:46.934Z,18.30
2023-03-22T13:50:28.339Z,18.30
2023-03-22T13:53:05.919Z,18.40
2023-03-22T13:55:41.279Z,18.40
2023-03-22T13:58:31.138Z,18.50
2023-03-22T14:00:59.000Z,18.50
2023-03-22T14:03:32.964Z,18.50
2023-03-22T14:06:32.025Z,18.50
2023-03-22T14:09:11.156Z,18.60
2023-03-22T14:11:57.105Z,18.70
2023-03-22T14:14:32.942Z,18.60
2023-03-22T14:17:06.006Z,18.60
2023-03-22T14:19:34.876Z,18.50
